Kezdőlap
METAR-TAF:

METAR-TAF

Repülőterek :

N’Djamena, Csád

földrajzi szélesség: 12-08N, földrajzi hosszúság: 015-02E, magasság: 295 m

Jelenlegi meteorológiai megfigyelések

A jelentés 52 perccel ezelõtt készült, 09:00 UTC
Északkeleti szél 12 kt
Hőmérséklet 25°C
Páratartalom 10%
Légköri nyomás 1015 hPa
Látótávolság 10 km, vagy több
felhőtlen 1500 m magasságban, és nincs gomolyfelhõ

METAR: FTTJ 220900Z 04012KT CAVOK 25/M09 Q1015 NOSIG

Idő: 10:52 (09:52 UTC)

Előrejelzés

A jelentés 4 órával és 52 perccel ezelõtt készült, 05:00 UTC
Az előrejelzés 22-én 06 óra UTC és 23-én 12 óra UTC között érvényes
Északkeleti szél 8 kt
Látótávolság: 8000 m

TAF: FTTJ 220500Z 2206/2312 04008KT 8000 NSC

Meteorológiai megfigyelések és előrejelzések több, mint 4000 repülőtéren (METAR és TAF jelentéseket).

A térképen piros és sárga pontok jelzik az elérhető meteorológiai állomásokat.

Mozgassa az egeret a pont fölött, hogy megjelenjen az állomás neve.

Azután kattintson az időjárási megfigyelések és előrejelzések megtekintéséhez.

A térkép megváltoztatása: kattintson a fekete keresztel jelölt zöld gombra ráközelítéshez, a vonallal jelölt zöld gombra távolításhoz, vagy a zöld nyilakra a szomszédos térképek eléréséhez.


METAR-TAF: